Nearby METAR Reports

 

KNUQ - Moffett Nas/Mtn, California, USA
Distance from station: N 9mi, 14km
Updated: Tue, 19-Mar-2019 12:56pm PDT
Clear
Clear
 Wind from varies
Wind: varies 6 mph , 9 km/h
Temperature: 72°F , 22°C
Dew Point: 37°F , 3°C
Humidity: 29%
Barometer: 29.86 inHg , 1011.2 hPa
Clouds: Clear
Visibility: 10 miles , 16 km
2019/03/19 19:56 KNUQ 191956Z VRB05KT 10SM CLR 22/03 A2986 RMK AO2 SLP113 T02170033
KSJC - San Jose, California, USA
Distance from station: NE 9mi, 14km
Updated: Tue, 19-Mar-2019 12:53pm PDT
Overcast
Overcast
 Wind from SE
Wind: SE 6 mph , 9 km/h
Temperature: 70°F , 21°C
Dew Point: 39°F , 4°C
Humidity: 33%
Barometer: 29.86 inHg , 1011.2 hPa
Clouds: Overcast
Visibility: 10 miles , 16 km
Cloud details: Few Clouds 5500 ft
Mostly Cloudy 8000 ft
Overcast 13000 ft
2019/03/19 19:53 KSJC 191953Z 14005KT 10SM FEW055 BKN080 OVC130 21/04 A2986 RMK AO2 SLP109 T02060039
 
KRHV - San Jose/Reid, California, USA
Distance from station: ENE 12mi, 19km
Updated: Tue, 19-Mar-2019 11:57am PDT
NOT Current
Overcast
Overcast
 Wind from calm
Wind: Calm
Temperature: 68°F , 20°C
Dew Point: 46°F , 8°C
Humidity: 46%
Barometer: 29.86 inHg , 1011.2 hPa
Clouds: Overcast
Visibility: 10 miles , 16 km
Cloud details: Partly Cloudy 5000 ft
Overcast 12000 ft
2019/03/19 18:57 KRHV 191857Z 00000KT 10SM SCT050 OVC120 20/08 A2986
KPAO - Palo Alto, California, USA
Distance from station: NNW 14mi, 23km
Updated: Tue, 19-Mar-2019 12:47pm PDT
Mostly Cloudy
Mostly Cloudy
 Wind from N
Wind: N 7 mph , 11 km/h
Temperature: 61°F , 16°C
Dew Point: 54°F , 12°C
Humidity: 77%
Barometer: 29.87 inHg , 1011.5 hPa
Clouds: Mostly Cloudy
Visibility: 10 miles , 16 km
Cloud details: Few Clouds 5000 ft
Mostly Cloudy 10000 ft
2019/03/19 19:47 KPAO 191947Z 36006KT 10SM FEW050 BKN100 16/12 A2987
 
KSQL - San Carlos Airpo, California, USA
Distance from station: NW 21mi, 34km
Updated: Tue, 19-Mar-2019 12:50pm PDT
Mist, Mostly cloudy
Mist, Mostly cloudy
 Wind from NNE
Wind: NNE 6 mph , 9 km/h
Temperature: 59°F , 15°C
Dew Point: 54°F , 12°C
Humidity: 82%
Barometer: 29.87 inHg , 1011.5 hPa
Summary: Mist
Clouds: Mostly Cloudy
Visibility: 6 miles , 10 km
Cloud details: Few Clouds 8000 ft
Mostly Cloudy 18000 ft
2019/03/19 19:50 KSQL 191950Z 03005KT 6SM BR FEW080 BKN180 15/12 A2987
KWVI - Watsonville, California, USA
Distance from station: SSE 27mi, 44km
Updated: Tue, 19-Mar-2019 12:53pm PDT
Clear
Clear
 Wind from varies
Wind: varies 3 mph , 6 km/h
Temperature: 66°F , 19°C
Dew Point: 46°F , 8°C
Humidity: 49%
Barometer: 29.88 inHg , 1011.9 hPa
Clouds: Clear
Visibility: 10 miles , 16 km
2019/03/19 19:53 KWVI 191953Z AUTO VRB03KT 10SM CLR 19/08 A2988 RMK AO2 SLP116 T01890078
 
KHWD - Hayward, California, USA
Distance from station: N 28mi, 44km
Updated: Tue, 19-Mar-2019 12:54pm PDT
Clear
Clear
 Wind from calm
Wind: Calm
Temperature: 73°F , 23°C
Dew Point: 48°F , 9°C
Humidity: 41%
Barometer: 29.86 inHg , 1011.2 hPa
Clouds: Clear
2019/03/19 19:54 KHWD 191954Z 00000KT CLR 23/09 A2986 RMK AO2 SLP120 T02280094 $
KSFO - San Francisco, California, USA
Distance from station: NW 30mi, 49km
Updated: Tue, 19-Mar-2019 12:56pm PDT
Overcast
Overcast
 Wind from N
Wind: N 3 mph , 6 km/h
Temperature: 57°F , 14°C
Dew Point: 52°F , 11°C
Humidity: 82%
Barometer: 29.86 inHg , 1011.2 hPa
Clouds: Overcast
Visibility: 9 miles , 14 km
Cloud details: Overcast 20000 ft
2019/03/19 19:56 KSFO 191956Z 01003KT 9SM OVC200 14/11 A2986 RMK AO2 SLP112 T01440106
 
KHAF - Half Moon Bay, California, USA
Distance from station: WNW 31mi, 50km
Updated: Tue, 19-Mar-2019 1:15pm PDT
Clear
Clear
 Wind from SW
Wind: SW 8 mph , 13 km/h
Temperature: 64°F , 18°C
Dew Point: 45°F , 7°C
Humidity: 49%
Barometer: 29.88 inHg , 1011.9 hPa
Clouds: Clear
Visibility: 9 miles , 14 km
2019/03/19 20:15 KHAF 192015Z AUTO 23007KT 9SM CLR 18/07 A2988 RMK AO2
KOAK - Oakland, California, USA
Distance from station: NNW 31mi, 50km
Updated: Tue, 19-Mar-2019 12:53pm PDT
Overcast
Overcast
 Wind from WSW
Wind: WSW 5 mph , 7 km/h
Temperature: 63°F , 17°C
Dew Point: 50°F , 10°C
Humidity: 64%
Barometer: 29.87 inHg , 1011.5 hPa
Clouds: Overcast
Visibility: 9 miles , 14 km
Cloud details: Few Clouds 6000 ft
Overcast 20000 ft
2019/03/19 19:53 KOAK 191953Z 25004KT 9SM FEW060 OVC200 17/10 A2987 RMK AO2 SLP115 T01720100
 
KLVK - Livermore, California, USA
Distance from station: NNE 31mi, 51km
Updated: Tue, 19-Mar-2019 12:53pm PDT
Clear
Clear
 Wind from varies
Wind: varies 3 mph , 6 km/h
Temperature: 68°F , 20°C
Dew Point: 45°F , 7°C
Humidity: 43%
Barometer: 29.87 inHg , 1011.5 hPa
Clouds: Clear
Visibility: 10 miles , 16 km
2019/03/19 19:53 KLVK 191953Z VRB03KT 10SM CLR 20/07 A2987 RMK AO2 SLP111 T02000072
KCVH - Hollister Muni, California, USA
Distance from station: SE 42mi, 68km
Updated: Tue, 19-Mar-2019 1:15pm PDT
Clear
Clear
 Wind from NW
Wind: NW 3 mph , 6 km/h
Temperature: 66°F , 19°C
Dew Point: 48°F , 9°C
Humidity: 52%
Barometer: 29.87 inHg , 1011.5 hPa
Clouds: Clear
Visibility: 10 miles , 16 km
2019/03/19 20:15 KCVH 192015Z AUTO 32003KT 10SM CLR 19/09 A2987 RMK A01
 
KSNS - Salinas, California, USA
Distance from station: SSE 48mi, 77km
Updated: Tue, 19-Mar-2019 12:53pm PDT
Clear
Clear
 Wind from SSE
Wind: SSE 12 mph , 19 km/h, Gust: 17 mph , 28 km/h
Temperature: 70°F , 21°C
Dew Point: 39°F , 4°C
Humidity: 33%
Barometer: 29.85 inHg , 1010.8 hPa
Clouds: Clear
Visibility: 10 miles , 16 km
2019/03/19 19:53 KSNS 191953Z 15010G15KT 10SM CLR 21/04 A2985 RMK AO2 SLP118 T02110044
KMRY - Monterey, California, USA
Distance from station: SSE 49mi, 78km
Updated: Tue, 19-Mar-2019 12:54pm PDT
Clear
Clear
 Wind from W
Wind: W 6 mph , 9 km/h
Temperature: 61°F , 16°C
Dew Point: 48°F , 9°C
Humidity: 63%
Barometer: 29.87 inHg , 1011.5 hPa
Clouds: Clear
Visibility: 10 miles , 16 km
2019/03/19 19:54 KMRY 191954Z 27005KT 10SM CLR 16/09 A2987 RMK AO2 SLP127 T01610089
 
KCCR - Concord, California, USA
Distance from station: N 50mi, 81km
Updated: Tue, 19-Mar-2019 12:53pm PDT
Clear
Clear
 Wind from NE
Wind: NE 5 mph , 7 km/h
Temperature: 72°F , 22°C
Dew Point: 46°F , 8°C
Humidity: 41%
Barometer: 29.87 inHg , 1011.5 hPa
Clouds: Clear
Visibility: 10 miles , 16 km
2019/03/19 19:53 KCCR 191953Z 04004KT 10SM CLR 22/08 A2987 RMK AO2 SLP101 T02220083

Metar display script from Saratoga-Weather.org